sensor_id;sensor_type;location;lat;lon;timestamp;pressure;altitude;pressure_sealevel;temperature;humidity
29907;BME280;16776;50.958;10.994;2024-01-25T00:00:17;99140.97;;;6.78;93.58
29907;BME280;16776;50.958;10.994;2024-01-25T00:02:45;99135.03;;;6.78;93.11
29907;BME280;16776;50.958;10.994;2024-01-25T00:05:11;99129.03;;;6.76;94.15
29907;BME280;16776;50.958;10.994;2024-01-25T00:07:45;99132.44;;;6.81;93.33
29907;BME280;16776;50.958;10.994;2024-01-25T00:10:12;99117.94;;;6.74;93.66
29907;BME280;16776;50.958;10.994;2024-01-25T00:12:39;99128.19;;;6.74;93.96
29907;BME280;16776;50.958;10.994;2024-01-25T00:15:05;99126.47;;;6.74;94.31
29907;BME280;16776;50.958;10.994;2024-01-25T00:17:32;99124.75;;;6.73;94.32
29907;BME280;16776;50.958;10.994;2024-01-25T00:20:00;99117.09;;;6.75;93.72
29907;BME280;16776;50.958;10.994;2024-01-25T00:22:27;99123.03;;;6.72;94.30
29907;BME280;16776;50.958;10.994;2024-01-25T00:24:53;99129.03;;;6.70;93.81
29907;BME280;16776;50.958;10.994;2024-01-25T00:27:21;99131.59;;;6.68;93.53
29907;BME280;16776;50.958;10.994;2024-01-25T00:29:48;99129.03;;;6.66;93.68
29907;BME280;16776;50.958;10.994;2024-01-25T00:32:14;99127.31;;;6.65;94.31
29907;BME280;16776;50.958;10.994;2024-01-25T00:34:41;99131.59;;;6.65;94.00
29907;BME280;16776;50.958;10.994;2024-01-25T00:37:10;99129.03;;;6.66;93.89
29907;BME280;16776;50.958;10.994;2024-01-25T00:39:37;99130.75;;;6.63;94.13
29907;BME280;16776;50.958;10.994;2024-01-25T00:42:05;99121.38;;;6.62;93.86
29907;BME280;16776;50.958;10.994;2024-01-25T00:44:33;99133.34;;;6.57;93.28
29907;BME280;16776;50.958;10.994;2024-01-25T00:47:00;99126.50;;;6.54;93.42
29907;BME280;16776;50.958;10.994;2024-01-25T00:49:27;99137.63;;;6.52;93.66
29907;BME280;16776;50.958;10.994;2024-01-25T00:52:02;99138.44;;;6.54;93.28
29907;BME280;16776;50.958;10.994;2024-01-25T00:54:31;99136.75;;;6.50;93.70
29907;BME280;16776;50.958;10.994;2024-01-25T00:56:58;99143.59;;;6.45;93.51
29907;BME280;16776;50.958;10.994;2024-01-25T00:59:24;99141.88;;;6.42;93.98
29907;BME280;16776;50.958;10.994;2024-01-25T01:01:53;99149.59;;;6.39;93.81
29907;BME280;16776;50.958;10.994;2024-01-25T01:04:21;99151.28;;;6.37;94.40
29907;BME280;16776;50.958;10.994;2024-01-25T01:06:48;99123.19;;;6.13;93.95
29907;BME280;16776;50.958;10.994;2024-01-25T01:09:15;99161.53;;;6.37;94.25
29907;BME280;16776;50.958;10.994;2024-01-25T01:11:44;99160.66;;;6.29;93.96
29907;BME280;16776;50.958;10.994;2024-01-25T01:14:11;99176.00;;;6.34;93.73
29907;BME280;16776;50.958;10.994;2024-01-25T01:16:37;99175.16;;;6.33;94.23
29907;BME280;16776;50.958;10.994;2024-01-25T01:19:04;99175.16;;;6.33;93.81
29907;BME280;16776;50.958;10.994;2024-01-25T01:21:32;99176.88;;;6.33;94.02
29907;BME280;16776;50.958;10.994;2024-01-25T01:23:59;99186.25;;;6.32;94.08
29907;BME280;16776;50.958;10.994;2024-01-25T01:26:25;99187.97;;;6.32;94.54
29907;BME280;16776;50.958;10.994;2024-01-25T01:28:53;99196.47;;;6.35;94.79
29907;BME280;16776;50.958;10.994;2024-01-25T01:31:20;99192.22;;;6.31;94.66
29907;BME280;16776;50.958;10.994;2024-01-25T01:33:46;99188.81;;;6.32;94.56
29907;BME280;16776;50.958;10.994;2024-01-25T01:36:13;99192.22;;;6.33;94.37
29907;BME280;16776;50.958;10.994;2024-01-25T01:38:40;99187.97;;;6.32;94.20
29907;BME280;16776;50.958;10.994;2024-01-25T01:41:06;99186.25;;;6.31;94.31
29907;BME280;16776;50.958;10.994;2024-01-25T01:43:33;99171.75;;;6.31;94.11
29907;BME280;16776;50.958;10.994;2024-01-25T01:46:04;99183.69;;;6.35;93.96
29907;BME280;16776;50.958;10.994;2024-01-25T01:48:35;99172.59;;;6.29;94.23
29907;BME280;16776;50.958;10.994;2024-01-25T01:51:01;99170.03;;;6.27;94.19
29907;BME280;16776;50.958;10.994;2024-01-25T01:53:28;99167.50;;;6.25;94.34
29907;BME280;16776;50.958;10.994;2024-01-25T01:55:55;99170.91;;;6.24;94.67
29907;BME280;16776;50.958;10.994;2024-01-25T01:58:22;99176.03;;;6.24;94.53
29907;BME280;16776;50.958;10.994;2024-01-25T02:00:50;99152.16;;;6.10;94.82
29907;BME280;16776;50.958;10.994;2024-01-25T02:03:18;99164.94;;;6.24;94.76
29907;BME280;16776;50.958;10.994;2024-01-25T02:05:45;99171.78;;;6.19;94.23
29907;BME280;16776;50.958;10.994;2024-01-25T02:08:12;99165.81;;;6.18;94.81
29907;BME280;16776;50.958;10.994;2024-01-25T02:10:38;99170.06;;;6.18;94.93
29907;BME280;16776;50.958;10.994;2024-01-25T02:13:05;99186.25;;;6.17;94.66
29907;BME280;16776;50.958;10.994;2024-01-25T02:15:31;99177.72;;;6.16;94.98
29907;BME280;16776;50.958;10.994;2024-01-25T02:17:58;99185.38;;;6.15;94.33
29907;BME280;16776;50.958;10.994;2024-01-25T02:20:26;99195.63;;;6.18;94.91
29907;BME280;16776;50.958;10.994;2024-01-25T02:22:54;99192.22;;;6.17;94.64
29907;BME280;16776;50.958;10.994;2024-01-25T02:25:21;99198.16;;;6.15;94.80
29907;BME280;16776;50.958;10.994;2024-01-25T02:27:47;99194.78;;;6.16;95.21
29907;BME280;16776;50.958;10.994;2024-01-25T02:30:14;99192.22;;;6.17;94.38
29907;BME280;16776;50.958;10.994;2024-01-25T02:32:42;99196.47;;;6.21;94.92
29907;BME280;16776;50.958;10.994;2024-01-25T02:35:09;99192.22;;;6.22;94.55
29907;BME280;16776;50.958;10.994;2024-01-25T02:37:35;99189.66;;;6.22;94.85
29907;BME280;16776;50.958;10.994;2024-01-25T02:40:04;99189.66;;;6.26;94.56
29907;BME280;16776;50.958;10.994;2024-01-25T02:42:33;99190.50;;;6.24;94.65
29907;BME280;16776;50.958;10.994;2024-01-25T02:44:59;99193.06;;;6.24;94.39
29907;BME280;16776;50.958;10.994;2024-01-25T02:47:26;99196.50;;;6.26;94.90
29907;BME280;16776;50.958;10.994;2024-01-25T02:49:52;99196.50;;;6.26;94.85
29907;BME280;16776;50.958;10.994;2024-01-25T02:52:19;99190.50;;;6.27;94.66
29907;BME280;16776;50.958;10.994;2024-01-25T02:54:45;99163.22;;;6.14;94.22
29907;BME280;16776;50.958;10.994;2024-01-25T02:57:13;99193.91;;;6.29;94.74
29907;BME280;16776;50.958;10.994;2024-01-25T02:59:40;99183.69;;;6.27;94.56
29907;BME280;16776;50.958;10.994;2024-01-25T03:02:06;99189.66;;;6.28;94.06
29907;BME280;16776;50.958;10.994;2024-01-25T03:04:33;99188.78;;;6.27;94.47
29907;BME280;16776;50.958;10.994;2024-01-25T03:06:59;99200.72;;;6.27;94.14
29907;BME280;16776;50.958;10.994;2024-01-25T03:09:26;99205.00;;;6.26;94.64
29907;BME280;16776;50.958;10.994;2024-01-25T03:11:53;99216.06;;;6.27;94.73
29907;BME280;16776;50.958;10.994;2024-01-25T03:14:21;99210.13;;;6.30;94.53
29907;BME280;16776;50.958;10.994;2024-01-25T03:16:47;99217.78;;;6.28;94.37
29907;BME280;16776;50.958;10.994;2024-01-25T03:19:14;99205.00;;;6.28;94.79
29907;BME280;16776;50.958;10.994;2024-01-25T03:21:40;99217.78;;;6.28;94.38
29907;BME280;16776;50.958;10.994;2024-01-25T03:24:07;99225.47;;;6.28;94.15
29907;BME280;16776;50.958;10.994;2024-01-25T03:26:34;99217.81;;;6.25;94.23
29907;BME280;16776;50.958;10.994;2024-01-25T03:29:00;99210.13;;;6.23;94.01
29907;BME280;16776;50.958;10.994;2024-01-25T03:31:28;99216.94;;;6.24;94.00
29907;BME280;16776;50.958;10.994;2024-01-25T03:33:55;99233.13;;;6.22;94.13
29907;BME280;16776;50.958;10.994;2024-01-25T03:36:21;99227.19;;;6.20;94.48
29907;BME280;16776;50.958;10.994;2024-01-25T03:38:48;99226.31;;;6.18;94.53
29907;BME280;16776;50.958;10.994;2024-01-25T03:41:14;99230.56;;;6.16;94.26
29907;BME280;16776;50.958;10.994;2024-01-25T03:43:41;99233.13;;;6.14;94.43
29907;BME280;16776;50.958;10.994;2024-01-25T03:46:08;99236.53;;;6.15;94.90
29907;BME280;16776;50.958;10.994;2024-01-25T03:48:36;99242.50;;;6.17;94.76
29907;BME280;16776;50.958;10.994;2024-01-25T03:51:03;99251.91;;;6.13;94.56
29907;BME280;16776;50.958;10.994;2024-01-25T03:53:29;99257.84;;;6.12;94.89
29907;BME280;16776;50.958;10.994;2024-01-25T03:55:56;99263.81;;;6.11;94.82
29907;BME280;16776;50.958;10.994;2024-01-25T03:58:23;99268.91;;;6.10;94.86
29907;BME280;16776;50.958;10.994;2024-01-25T04:00:49;99260.41;;;6.11;94.72
29907;BME280;16776;50.958;10.994;2024-01-25T04:03:16;99272.31;;;6.09;94.73
29907;BME280;16776;50.958;10.994;2024-01-25T04:05:44;99260.41;;;6.09;94.52
29907;BME280;16776;50.958;10.994;2024-01-25T04:08:10;99265.50;;;6.05;94.66
29907;BME280;16776;50.958;10.994;2024-01-25T04:10:37;99278.28;;;6.03;94.47
29907;BME280;16776;50.958;10.994;2024-01-25T04:13:03;99278.28;;;6.00;95.07
29907;BME280;16776;50.958;10.994;2024-01-25T04:15:31;99277.44;;;6.00;94.63
29907;BME280;16776;50.958;10.994;2024-01-25T04:17:58;99278.28;;;5.97;94.68
29907;BME280;16776;50.958;10.994;2024-01-25T04:20:24;99302.13;;;5.96;94.46
29907;BME280;16776;50.958;10.994;2024-01-25T04:22:52;99291.91;;;5.96;94.52
29907;BME280;16776;50.958;10.994;2024-01-25T04:25:18;99295.31;;;5.94;94.80
29907;BME280;16776;50.958;10.994;2024-01-25T04:27:45;99291.06;;;5.93;95.03
29907;BME280;16776;50.958;10.994;2024-01-25T04:30:11;99279.97;;;5.94;94.74
29907;BME280;16776;50.958;10.994;2024-01-25T04:32:39;99272.31;;;5.94;94.94
29907;BME280;16776;50.958;10.994;2024-01-25T04:35:06;99254.41;;;5.94;94.86
29907;BME280;16776;50.958;10.994;2024-01-25T04:37:34;99256.97;;;5.94;94.94
29907;BME280;16776;50.958;10.994;2024-01-25T04:40:02;99245.88;;;5.95;94.75
29907;BME280;16776;50.958;10.994;2024-01-25T04:42:30;99245.88;;;5.92;95.06
29907;BME280;16776;50.958;10.994;2024-01-25T04:44:57;99245.03;;;5.91;94.71
29907;BME280;16776;50.958;10.994;2024-01-25T04:47:23;99234.78;;;5.90;94.86
29907;BME280;16776;50.958;10.994;2024-01-25T04:49:50;99242.50;;;5.88;95.09
29907;BME280;16776;50.958;10.994;2024-01-25T04:52:16;99242.47;;;5.85;94.70
29907;BME280;16776;50.958;10.994;2024-01-25T04:54:43;99262.91;;;5.83;94.41
29907;BME280;16776;50.958;10.994;2024-01-25T04:57:11;99264.59;;;5.83;94.59
29907;BME280;16776;50.958;10.994;2024-01-25T04:59:37;99270.56;;;5.77;94.62
29907;BME280;16776;50.958;10.994;2024-01-25T05:02:04;99291.00;;;5.74;94.97
29907;BME280;16776;50.958;10.994;2024-01-25T05:04:30;99293.53;;;5.71;94.79
29907;BME280;16776;50.958;10.994;2024-01-25T05:06:57;99302.88;;;5.69;94.96
29907;BME280;16776;50.958;10.994;2024-01-25T05:09:24;99304.59;;;5.67;95.17
29907;BME280;16776;50.958;10.994;2024-01-25T05:11:50;99304.59;;;5.67;94.90
29907;BME280;16776;50.958;10.994;2024-01-25T05:14:18;99316.53;;;5.68;94.77
29907;BME280;16776;50.958;10.994;2024-01-25T05:16:45;99301.97;;;5.52;95.17
29907;BME280;16776;50.958;10.994;2024-01-25T05:19:11;99338.66;;;5.66;95.43
29907;BME280;16776;50.958;10.994;2024-01-25T05:21:38;99347.19;;;5.65;95.21
29907;BME280;16776;50.958;10.994;2024-01-25T05:24:05;99360.81;;;5.67;95.30
29907;BME280;16776;50.958;10.994;2024-01-25T05:26:33;99354.84;;;5.67;95.34
29907;BME280;16776;50.958;10.994;2024-01-25T05:28:59;99366.78;;;5.69;97.22
29907;BME280;16776;50.958;10.994;2024-01-25T05:31:27;99369.38;;;5.78;97.99
29907;BME280;16776;50.958;10.994;2024-01-25T05:33:54;99366.00;;;5.89;97.54
29907;BME280;16776;50.958;10.994;2024-01-25T05:36:20;99371.19;;;6.01;96.99
29907;BME280;16776;50.958;10.994;2024-01-25T05:38:47;99372.06;;;6.09;96.18
29907;BME280;16776;50.958;10.994;2024-01-25T05:41:13;99370.34;;;6.14;95.78
29907;BME280;16776;50.958;10.994;2024-01-25T05:43:40;99372.09;;;6.19;95.79
29907;BME280;16776;50.958;10.994;2024-01-25T05:46:07;99363.56;;;6.20;95.54
29907;BME280;16776;50.958;10.994;2024-01-25T05:48:36;99362.72;;;6.23;95.37
29907;BME280;16776;50.958;10.994;2024-01-25T05:51:02;99370.38;;;6.21;94.67
29907;BME280;16776;50.958;10.994;2024-01-25T05:53:29;99375.50;;;6.21;95.42
29907;BME280;16776;50.958;10.994;2024-01-25T05:55:56;99372.97;;;6.20;95.87
29907;BME280;16776;50.958;10.994;2024-01-25T05:58:22;99365.28;;;6.18;95.19
29907;BME280;16776;50.958;10.994;2024-01-25T06:00:49;99373.78;;;6.14;94.74
29907;BME280;16776;50.958;10.994;2024-01-25T06:03:15;99365.25;;;6.11;94.64
29907;BME280;16776;50.958;10.994;2024-01-25T06:05:43;99366.09;;;6.10;94.90
29907;BME280;16776;50.958;10.994;2024-01-25T06:08:10;99360.09;;;6.03;94.25
29907;BME280;16776;50.958;10.994;2024-01-25T06:10:37;99366.09;;;6.01;94.28
29907;BME280;16776;50.958;10.994;2024-01-25T06:13:04;99362.59;;;5.90;94.37
29907;BME280;16776;50.958;10.994;2024-01-25T06:15:31;99380.53;;;5.94;93.80
29907;BME280;16776;50.958;10.994;2024-01-25T06:17:57;99369.44;;;5.91;93.89
29907;BME280;16776;50.958;10.994;2024-01-25T06:20:24;99383.06;;;5.88;94.02
29907;BME280;16776;50.958;10.994;2024-01-25T06:22:52;99380.53;;;5.88;94.09
29907;BME280;16776;50.958;10.994;2024-01-25T06:25:19;99398.38;;;5.83;93.88
29907;BME280;16776;50.958;10.994;2024-01-25T06:27:45;99396.66;;;5.82;93.96
29907;BME280;16776;50.958;10.994;2024-01-25T06:30:13;99417.13;;;5.81;94.34
29907;BME280;16776;50.958;10.994;2024-01-25T06:32:39;99394.03;;;5.70;94.08
29907;BME280;16776;50.958;10.994;2024-01-25T06:35:07;99412.84;;;5.78;94.04
29907;BME280;16776;50.958;10.994;2024-01-25T06:37:35;99423.03;;;5.75;93.76
29907;BME280;16776;50.958;10.994;2024-01-25T06:40:03;99429.00;;;5.76;94.39
29907;BME280;16776;50.958;10.994;2024-01-25T06:42:30;99440.06;;;5.73;93.91
29907;BME280;16776;50.958;10.994;2024-01-25T06:44:57;99448.59;;;5.72;94.01
29907;BME280;16776;50.958;10.994;2024-01-25T06:47:23;99451.16;;;5.72;94.34
29907;BME280;16776;50.958;10.994;2024-01-25T06:49:50;99448.56;;;5.71;94.49
29907;BME280;16776;50.958;10.994;2024-01-25T06:52:17;99449.44;;;5.71;94.50
29907;BME280;16776;50.958;10.994;2024-01-25T06:54:44;99457.97;;;5.73;94.28
29907;BME280;16776;50.958;10.994;2024-01-25T06:57:12;99463.09;;;5.75;94.62
29907;BME280;16776;50.958;10.994;2024-01-25T06:59:39;99471.59;;;5.74;94.30
29907;BME280;16776;50.958;10.994;2024-01-25T07:02:06;99462.22;;;5.76;94.61
29907;BME280;16776;50.958;10.994;2024-01-25T07:04:32;99463.91;;;5.75;94.42
29907;BME280;16776;50.958;10.994;2024-01-25T07:06:59;99458.81;;;5.75;94.35
29907;BME280;16776;50.958;10.994;2024-01-25T07:09:26;99466.47;;;5.75;94.52
29907;BME280;16776;50.958;10.994;2024-01-25T07:11:52;99452.88;;;5.75;94.40
29907;BME280;16776;50.958;10.994;2024-01-25T07:14:20;99457.97;;;5.78;94.26
29907;BME280;16776;50.958;10.994;2024-01-25T07:16:47;99469.06;;;5.77;94.23
29907;BME280;16776;50.958;10.994;2024-01-25T07:19:13;99469.03;;;5.75;93.87
29907;BME280;16776;50.958;10.994;2024-01-25T07:21:40;99480.13;;;5.76;94.64
29907;BME280;16776;50.958;10.994;2024-01-25T07:24:07;99486.91;;;5.75;94.20
29907;BME280;16776;50.958;10.994;2024-01-25T07:26:34;99483.53;;;5.76;94.32
29907;BME280;16776;50.958;10.994;2024-01-25T07:29:05;99496.34;;;5.81;94.04
29907;BME280;16776;50.958;10.994;2024-01-25T07:31:33;99502.31;;;5.80;94.39
29907;BME280;16776;50.958;10.994;2024-01-25T07:33:59;99498.03;;;5.79;94.28
29907;BME280;16776;50.958;10.994;2024-01-25T07:36:26;99495.47;;;5.79;94.07
29907;BME280;16776;50.958;10.994;2024-01-25T07:38:53;99508.28;;;5.80;94.21
29907;BME280;16776;50.958;10.994;2024-01-25T07:41:19;99506.59;;;5.81;93.99
29907;BME280;16776;50.958;10.994;2024-01-25T07:43:46;99505.72;;;5.80;94.11
29907;BME280;16776;50.958;10.994;2024-01-25T07:46:12;99507.41;;;5.80;94.22
29907;BME280;16776;50.958;10.994;2024-01-25T07:48:41;99513.38;;;5.79;93.99
29907;BME280;16776;50.958;10.994;2024-01-25T07:51:11;99521.91;;;5.82;94.10
29907;BME280;16776;50.958;10.994;2024-01-25T07:53:38;99526.13;;;5.77;94.47
29907;BME280;16776;50.958;10.994;2024-01-25T07:56:06;99531.25;;;5.79;94.16
29907;BME280;16776;50.958;10.994;2024-01-25T07:58:34;99534.66;;;5.76;94.18
29907;BME280;16776;50.958;10.994;2024-01-25T08:01:02;99536.34;;;5.77;94.63
29907;BME280;16776;50.958;10.994;2024-01-25T08:03:30;99532.94;;;5.75;94.56
29907;BME280;16776;50.958;10.994;2024-01-25T08:05:59;99527.00;;;5.79;94.52
29907;BME280;16776;50.958;10.994;2024-01-25T08:08:26;99529.53;;;5.76;94.82
29907;BME280;16776;50.958;10.994;2024-01-25T08:10:52;99527.84;;;5.78;94.48
29907;BME280;16776;50.958;10.994;2024-01-25T08:13:19;99521.06;;;5.80;94.86
29907;BME280;16776;50.958;10.994;2024-01-25T08:15:46;99531.28;;;5.82;94.75
29907;BME280;16776;50.958;10.994;2024-01-25T08:18:13;99522.78;;;5.84;95.03
29907;BME280;16776;50.958;10.994;2024-01-25T08:20:39;99525.34;;;5.86;94.75
29907;BME280;16776;50.958;10.994;2024-01-25T08:23:08;99518.53;;;5.90;94.67
29907;BME280;16776;50.958;10.994;2024-01-25T08:25:35;99516.84;;;5.90;94.41
29907;BME280;16776;50.958;10.994;2024-01-25T08:28:01;99526.25;;;5.93;94.71
29907;BME280;16776;50.958;10.994;2024-01-25T08:30:28;99523.69;;;5.93;94.59
29907;BME280;16776;50.958;10.994;2024-01-25T08:32:58;99531.38;;;5.96;94.28
29907;BME280;16776;50.958;10.994;2024-01-25T08:35:24;99525.44;;;5.98;94.70
29907;BME280;16776;50.958;10.994;2024-01-25T08:37:51;99529.72;;;6.01;94.60
29907;BME280;16776;50.958;10.994;2024-01-25T08:40:19;99528.03;;;6.04;94.88
29907;BME280;16776;50.958;10.994;2024-01-25T08:42:47;99528.88;;;6.05;94.32
29907;BME280;16776;50.958;10.994;2024-01-25T08:45:14;99525.50;;;6.07;94.77
29907;BME280;16776;50.958;10.994;2024-01-25T08:47:41;99521.22;;;6.09;94.78
29907;BME280;16776;50.958;10.994;2024-01-25T08:50:10;99534.88;;;6.11;94.38
29907;BME280;16776;50.958;10.994;2024-01-25T08:52:37;99534.91;;;6.13;94.42
29907;BME280;16776;50.958;10.994;2024-01-25T08:55:06;99534.03;;;6.15;94.26
29907;BME280;16776;50.958;10.994;2024-01-25T08:57:34;99538.34;;;6.19;94.02
29907;BME280;16776;50.958;10.994;2024-01-25T09:00:01;99543.47;;;6.19;94.54
29907;BME280;16776;50.958;10.994;2024-01-25T09:02:30;99543.44;;;6.21;94.55
29907;BME280;16776;50.958;10.994;2024-01-25T09:04:57;99552.00;;;6.23;94.37
29907;BME280;16776;50.958;10.994;2024-01-25T09:07:24;99545.19;;;6.25;94.60
29907;BME280;16776;50.958;10.994;2024-01-25T09:09:51;99553.72;;;6.27;94.51
29907;BME280;16776;50.958;10.994;2024-01-25T09:12:17;99546.06;;;6.29;94.58
29907;BME280;16776;50.958;10.994;2024-01-25T09:14:45;99552.91;;;6.33;94.72
29907;BME280;16776;50.958;10.994;2024-01-25T09:17:12;99552.91;;;6.33;94.65
29907;BME280;16776;50.958;10.994;2024-01-25T09:19:39;99552.06;;;6.35;94.50
29907;BME280;16776;50.958;10.994;2024-01-25T09:22:06;99556.34;;;6.39;94.46
29907;BME280;16776;50.958;10.994;2024-01-25T09:24:35;99556.34;;;6.42;95.22
29907;BME280;16776;50.958;10.994;2024-01-25T09:27:06;99548.72;;;6.48;94.93
29907;BME280;16776;50.958;10.994;2024-01-25T09:29:33;99557.25;;;6.53;95.14
29907;BME280;16776;50.958;10.994;2024-01-25T09:32:01;99559.00;;;6.62;94.74
29907;BME280;16776;50.958;10.994;2024-01-25T09:34:27;99564.13;;;6.66;94.84
29907;BME280;16776;50.958;10.994;2024-01-25T09:36:54;99571.84;;;6.73;94.80
29907;BME280;16776;50.958;10.994;2024-01-25T09:39:21;99576.16;;;6.80;95.50
29907;BME280;16776;50.958;10.994;2024-01-25T09:41:47;99579.59;;;6.85;94.08
29907;BME280;16776;50.958;10.994;2024-01-25T09:44:14;99579.59;;;6.91;94.60
29907;BME280;16776;50.958;10.994;2024-01-25T09:46:43;99590.72;;;6.93;94.02
29907;BME280;16776;50.958;10.994;2024-01-25T09:49:12;99585.63;;;6.96;93.88
29907;BME280;16776;50.958;10.994;2024-01-25T09:51:41;99595.84;;;6.99;93.92
29907;BME280;16776;50.958;10.994;2024-01-25T09:54:08;99590.75;;;7.00;93.76
29907;BME280;16776;50.958;10.994;2024-01-25T09:56:36;99581.38;;;7.02;94.31
29907;BME280;16776;50.958;10.994;2024-01-25T09:59:03;99573.72;;;7.15;95.13
29907;BME280;16776;50.958;10.994;2024-01-25T10:01:30;99592.50;;;7.24;95.86
29907;BME280;16776;50.958;10.994;2024-01-25T10:03:57;99587.41;;;7.38;95.41
29907;BME280;16776;50.958;10.994;2024-01-25T10:06:25;99590.00;;;7.56;95.42
29907;BME280;16776;50.958;10.994;2024-01-25T10:08:52;99588.31;;;7.70;95.28
29907;BME280;16776;50.958;10.994;2024-01-25T10:11:19;99599.41;;;7.83;94.48
29907;BME280;16776;50.958;10.994;2024-01-25T10:13:47;99584.00;;;7.94;93.78
29907;BME280;16776;50.958;10.994;2024-01-25T10:16:17;99588.31;;;7.99;94.04
29907;BME280;16776;50.958;10.994;2024-01-25T10:18:46;99595.13;;;8.03;93.22
29907;BME280;16776;50.958;10.994;2024-01-25T10:21:15;99595.13;;;8.03;94.03
29907;BME280;16776;50.958;10.994;2024-01-25T10:23:45;99592.56;;;8.09;93.38
29907;BME280;16776;50.958;10.994;2024-01-25T10:26:12;99581.44;;;8.10;93.53
29907;BME280;16776;50.958;10.994;2024-01-25T10:28:39;99583.16;;;8.16;94.85
29907;BME280;16776;50.958;10.994;2024-01-25T10:31:06;99573.75;;;8.24;93.96
29907;BME280;16776;50.958;10.994;2024-01-25T10:33:34;99586.56;;;8.38;94.23
29907;BME280;16776;50.958;10.994;2024-01-25T10:36:01;99578.78;;;8.51;94.68
29907;BME280;16776;50.958;10.994;2024-01-25T10:38:29;99566.78;;;8.61;94.43
29907;BME280;16776;50.958;10.994;2024-01-25T10:40:59;99572.69;;;8.78;94.28
29907;BME280;16776;50.958;10.994;2024-01-25T10:43:26;99575.19;;;8.96;94.35
29907;BME280;16776;50.958;10.994;2024-01-25T10:45:53;99565.72;;;9.04;94.38
29907;BME280;16776;50.958;10.994;2024-01-25T10:48:23;99576.69;;;9.32;94.86
29907;BME280;16776;50.958;10.994;2024-01-25T10:50:50;99580.88;;;9.52;93.88
29907;BME280;16776;50.958;10.994;2024-01-25T10:53:17;99571.31;;;9.70;94.02
29907;BME280;16776;50.958;10.994;2024-01-25T10:55:45;99577.16;;;9.88;93.24
29907;BME280;16776;50.958;10.994;2024-01-25T10:58:14;99570.97;;;10.05;93.73
29907;BME280;16776;50.958;10.994;2024-01-25T11:00:45;99578.56;;;10.19;93.33
29907;BME280;16776;50.958;10.994;2024-01-25T11:03:15;99580.16;;;10.32;92.97
29907;BME280;16776;50.958;10.994;2024-01-25T11:05:42;99577.44;;;10.44;92.50
29907;BME280;16776;50.958;10.994;2024-01-25T11:08:17;99580.75;;;10.60;92.26
29907;BME280;16776;50.958;10.994;2024-01-25T11:10:48;99585.81;;;10.66;91.94
29907;BME280;16776;50.958;10.994;2024-01-25T11:13:23;99584.03;;;10.71;91.88
29907;BME280;16776;50.958;10.994;2024-01-25T11:15:50;99583.22;;;10.68;91.46
29907;BME280;16776;50.958;10.994;2024-01-25T11:18:16;99584.09;;;10.68;91.19
29907;BME280;16776;50.958;10.994;2024-01-25T11:20:46;99581.47;;;10.70;90.64
29907;BME280;16776;50.958;10.994;2024-01-25T11:23:15;99579.75;;;10.69;91.04
29907;BME280;16776;50.958;10.994;2024-01-25T11:25:44;99573.81;;;10.63;91.15
29907;BME280;16776;50.958;10.994;2024-01-25T11:28:14;99567.84;;;10.61;90.98
29907;BME280;16776;50.958;10.994;2024-01-25T11:30:42;99572.00;;;10.73;91.13
29907;BME280;16776;50.958;10.994;2024-01-25T11:33:09;99575.44;;;10.71;90.74
29907;BME280;16776;50.958;10.994;2024-01-25T11:35:36;99584.09;;;10.67;90.07
29907;BME280;16776;50.958;10.994;2024-01-25T11:38:03;99588.47;;;10.61;89.98
29907;BME280;16776;50.958;10.994;2024-01-25T11:40:30;99584.19;;;10.56;89.90
29907;BME280;16776;50.958;10.994;2024-01-25T11:42:56;99590.28;;;10.49;89.38
29907;BME280;16776;50.958;10.994;2024-01-25T11:45:23;99593.81;;;10.40;89.43
29907;BME280;16776;50.958;10.994;2024-01-25T11:47:51;99595.59;;;10.32;89.40
29907;BME280;16776;50.958;10.994;2024-01-25T11:50:18;99597.44;;;10.18;89.77
29907;BME280;16776;50.958;10.994;2024-01-25T11:52:44;99594.97;;;10.07;89.54
29907;BME280;16776;50.958;10.994;2024-01-25T11:55:11;99592.53;;;9.97;89.50
29907;BME280;16776;50.958;10.994;2024-01-25T11:57:38;99591.72;;;9.89;89.56
29907;BME280;16776;50.958;10.994;2024-01-25T12:00:09;99590.91;;;9.83;89.65
29907;BME280;16776;50.958;10.994;2024-01-25T12:02:36;99589.25;;;9.76;89.93
29907;BME280;16776;50.958;10.994;2024-01-25T12:05:12;99586.69;;;9.78;89.63
29907;BME280;16776;50.958;10.994;2024-01-25T12:07:39;99580.03;;;9.53;89.03
29907;BME280;16776;50.958;10.994;2024-01-25T12:10:08;99597.97;;;9.57;89.27
29907;BME280;16776;50.958;10.994;2024-01-25T12:12:35;99590.34;;;9.47;88.80
29907;BME280;16776;50.958;10.994;2024-01-25T12:15:05;99595.50;;;9.42;89.25
29907;BME280;16776;50.958;10.994;2024-01-25T12:17:33;99595.56;;;9.31;89.18
29907;BME280;16776;50.958;10.994;2024-01-25T12:20:01;99593.03;;;9.22;89.22
29907;BME280;16776;50.958;10.994;2024-01-25T12:22:30;99595.63;;;9.18;88.99
29907;BME280;16776;50.958;10.994;2024-01-25T12:24:57;99597.41;;;9.08;89.05
29907;BME280;16776;50.958;10.994;2024-01-25T12:27:25;99603.41;;;9.02;89.65
29907;BME280;16776;50.958;10.994;2024-01-25T12:29:52;99595.75;;;8.95;89.63
29907;BME280;16776;50.958;10.994;2024-01-25T12:32:19;99594.03;;;8.89;89.80
29907;BME280;16776;50.958;10.994;2024-01-25T12:34:53;99589.75;;;8.91;89.75
29907;BME280;16776;50.958;10.994;2024-01-25T12:37:20;99589.81;;;8.82;89.90
29907;BME280;16776;50.958;10.994;2024-01-25T12:39:48;99600.09;;;8.82;89.46
29907;BME280;16776;50.958;10.994;2024-01-25T12:42:14;99598.38;;;8.78;90.36
29907;BME280;16776;50.958;10.994;2024-01-25T12:44:41;99588.97;;;8.79;90.27
29907;BME280;16776;50.958;10.994;2024-01-25T12:47:08;99590.69;;;8.81;90.74
29907;BME280;16776;50.958;10.994;2024-01-25T12:49:34;99582.94;;;8.87;90.22
29907;BME280;16776;50.958;10.994;2024-01-25T12:52:01;99582.06;;;8.94;90.86
29907;BME280;16776;50.958;10.994;2024-01-25T12:54:27;99577.75;;;9.01;90.75
29907;BME280;16776;50.958;10.994;2024-01-25T12:56:56;99582.81;;;9.09;90.33
29907;BME280;16776;50.958;10.994;2024-01-25T12:59:22;99577.66;;;9.12;90.88